sensor_id;sensor_type;location;lat;lon;timestamp;pressure;altitude;pressure_sealevel;temperature;humidity
24336;BME280;75016;52.400;16.880;2024-03-22T00:00:04;101076.34;;;11.51;89.17
24336;BME280;75016;52.400;16.880;2024-03-22T00:02:57;101076.05;;;11.45;89.28
24336;BME280;75016;52.400;16.880;2024-03-22T00:05:23;101078.41;;;11.40;89.18
24336;BME280;75016;52.400;16.880;2024-03-22T00:07:48;101080.47;;;11.34;89.43
24336;BME280;75016;52.400;16.880;2024-03-22T00:10:14;101085.64;;;11.33;89.97
24336;BME280;75016;52.400;16.880;2024-03-22T00:12:39;101078.66;;;11.36;90.13
24336;BME280;75016;52.400;16.880;2024-03-22T00:15:05;101076.52;;;11.41;90.16
24336;BME280;75016;52.400;16.880;2024-03-22T00:17:31;101077.23;;;11.41;89.98
24336;BME280;75016;52.400;16.880;2024-03-22T00:19:57;101069.96;;;11.39;89.96
24336;BME280;75016;52.400;16.880;2024-03-22T00:22:22;101072.45;;;11.36;89.98
24336;BME280;75016;52.400;16.880;2024-03-22T00:24:47;101062.64;;;11.34;89.88
24336;BME280;75016;52.400;16.880;2024-03-22T00:27:13;101061.00;;;11.35;90.32
24336;BME280;75016;52.400;16.880;2024-03-22T00:29:38;101058.82;;;11.38;90.37
24336;BME280;75016;52.400;16.880;2024-03-22T00:32:04;101057.83;;;11.37;90.23
24336;BME280;75016;52.400;16.880;2024-03-22T00:34:30;101057.96;;;11.33;90.09
24336;BME280;75016;52.400;16.880;2024-03-22T00:36:55;101053.64;;;11.25;89.92
24336;BME280;75016;52.400;16.880;2024-03-22T00:39:21;101049.58;;;11.25;90.25
24336;BME280;75016;52.400;16.880;2024-03-22T00:41:46;101045.92;;;11.20;90.11
24336;BME280;75016;52.400;16.880;2024-03-22T00:44:12;101042.34;;;11.12;90.02
24336;BME280;75016;52.400;16.880;2024-03-22T00:46:37;101045.00;;;11.08;90.18
24336;BME280;75016;52.400;16.880;2024-03-22T00:49:03;101046.40;;;11.10;90.29
24336;BME280;75016;52.400;16.880;2024-03-22T00:51:28;101042.63;;;11.13;90.52
24336;BME280;75016;52.400;16.880;2024-03-22T00:53:53;101043.09;;;11.14;90.38
24336;BME280;75016;52.400;16.880;2024-03-22T00:56:19;101044.52;;;11.14;90.35
24336;BME280;75016;52.400;16.880;2024-03-22T00:58:44;101042.68;;;11.12;90.39
24336;BME280;75016;52.400;16.880;2024-03-22T01:01:10;101048.27;;;11.06;90.13
24336;BME280;75016;52.400;16.880;2024-03-22T01:03:35;101044.03;;;11.01;90.05
24336;BME280;75016;52.400;16.880;2024-03-22T01:06:01;101040.44;;;10.96;90.26
24336;BME280;75016;52.400;16.880;2024-03-22T01:08:27;101043.31;;;10.91;90.03
24336;BME280;75016;52.400;16.880;2024-03-22T01:10:53;101041.66;;;10.92;90.36
24336;BME280;75016;52.400;16.880;2024-03-22T01:13:18;101042.11;;;10.93;90.50
24336;BME280;75016;52.400;16.880;2024-03-22T01:15:44;101038.89;;;10.93;90.50
24336;BME280;75016;52.400;16.880;2024-03-22T01:18:11;101037.40;;;10.92;90.50
24336;BME280;75016;52.400;16.880;2024-03-22T01:20:36;101039.52;;;10.92;90.58
24336;BME280;75016;52.400;16.880;2024-03-22T01:23:02;101038.94;;;10.92;90.68
24336;BME280;75016;52.400;16.880;2024-03-22T01:25:28;101046.59;;;10.90;90.74
24336;BME280;75016;52.400;16.880;2024-03-22T01:27:54;101043.92;;;10.90;90.87
24336;BME280;75016;52.400;16.880;2024-03-22T01:30:20;101044.20;;;10.88;90.78
24336;BME280;75016;52.400;16.880;2024-03-22T01:32:45;101045.25;;;10.81;90.76
24336;BME280;75016;52.400;16.880;2024-03-22T01:35:11;101047.52;;;10.84;91.20
24336;BME280;75016;52.400;16.880;2024-03-22T01:37:36;101049.48;;;10.81;91.22
24336;BME280;75016;52.400;16.880;2024-03-22T01:40:03;101042.56;;;10.71;91.10
24336;BME280;75016;52.400;16.880;2024-03-22T01:42:30;101043.88;;;10.68;91.36
24336;BME280;75016;52.400;16.880;2024-03-22T01:44:55;101046.52;;;10.68;91.62
24336;BME280;75016;52.400;16.880;2024-03-22T01:47:21;101048.23;;;10.66;91.67
24336;BME280;75016;52.400;16.880;2024-03-22T01:49:47;101049.39;;;10.60;91.70
24336;BME280;75016;52.400;16.880;2024-03-22T01:52:14;101049.23;;;10.61;91.96
24336;BME280;75016;52.400;16.880;2024-03-22T01:54:39;101047.44;;;10.59;91.89
24336;BME280;75016;52.400;16.880;2024-03-22T01:57:05;101046.73;;;10.59;91.96
24336;BME280;75016;52.400;16.880;2024-03-22T01:59:32;101046.38;;;10.60;92.05
24336;BME280;75016;52.400;16.880;2024-03-22T02:01:58;101045.98;;;10.57;92.18
24336;BME280;75016;52.400;16.880;2024-03-22T02:04:23;101043.84;;;10.60;92.42
24336;BME280;75016;52.400;16.880;2024-03-22T02:06:49;101036.28;;;10.64;92.29
24336;BME280;75016;52.400;16.880;2024-03-22T02:09:14;101034.16;;;10.70;92.42
24336;BME280;75016;52.400;16.880;2024-03-22T02:11:40;101033.07;;;10.75;92.41
24336;BME280;75016;52.400;16.880;2024-03-22T02:14:06;101031.56;;;10.76;92.22
24336;BME280;75016;52.400;16.880;2024-03-22T02:16:31;101030.48;;;10.77;92.18
24336;BME280;75016;52.400;16.880;2024-03-22T02:18:57;101028.67;;;10.74;91.91
24336;BME280;75016;52.400;16.880;2024-03-22T02:21:22;101018.89;;;10.67;91.55
24336;BME280;75016;52.400;16.880;2024-03-22T02:23:48;101023.09;;;10.62;91.35
24336;BME280;75016;52.400;16.880;2024-03-22T02:26:13;101027.05;;;10.65;91.72
24336;BME280;75016;52.400;16.880;2024-03-22T02:28:38;101027.43;;;10.61;91.43
24336;BME280;75016;52.400;16.880;2024-03-22T02:31:04;101019.88;;;10.63;91.54
24336;BME280;75016;52.400;16.880;2024-03-22T02:33:30;101014.90;;;10.63;91.32
24336;BME280;75016;52.400;16.880;2024-03-22T02:35:55;101016.48;;;10.63;91.18
24336;BME280;75016;52.400;16.880;2024-03-22T02:38:22;101015.95;;;10.58;90.94
24336;BME280;75016;52.400;16.880;2024-03-22T02:40:49;101013.56;;;10.49;90.67
24336;BME280;75016;52.400;16.880;2024-03-22T02:43:15;101013.01;;;10.44;90.85
24336;BME280;75016;52.400;16.880;2024-03-22T02:45:40;101013.45;;;10.45;90.90
24336;BME280;75016;52.400;16.880;2024-03-22T02:48:06;101010.16;;;10.39;90.83
24336;BME280;75016;52.400;16.880;2024-03-22T02:50:38;101013.02;;;10.36;90.81
24336;BME280;75016;52.400;16.880;2024-03-22T02:53:04;101007.35;;;10.33;90.71
24336;BME280;75016;52.400;16.880;2024-03-22T02:55:35;101010.16;;;10.28;90.74
24336;BME280;75016;52.400;16.880;2024-03-22T02:58:01;101009.20;;;10.32;91.00
24336;BME280;75016;52.400;16.880;2024-03-22T03:00:26;101010.04;;;10.39;91.27
24336;BME280;75016;52.400;16.880;2024-03-22T03:02:52;101007.05;;;10.41;91.08
24336;BME280;75016;52.400;16.880;2024-03-22T03:05:17;101013.56;;;10.39;90.83
24336;BME280;75016;52.400;16.880;2024-03-22T03:07:43;101008.35;;;10.26;90.18
24336;BME280;75016;52.400;16.880;2024-03-22T03:10:08;101008.14;;;10.05;89.63
24336;BME280;75016;52.400;16.880;2024-03-22T03:12:34;101010.54;;;9.86;89.58
24336;BME280;75016;52.400;16.880;2024-03-22T03:14:59;101016.80;;;9.82;89.99
24336;BME280;75016;52.400;16.880;2024-03-22T03:17:25;101014.40;;;9.83;90.21
24336;BME280;75016;52.400;16.880;2024-03-22T03:19:50;101016.16;;;9.76;90.22
24336;BME280;75016;52.400;16.880;2024-03-22T03:22:16;101016.27;;;9.74;90.30
24336;BME280;75016;52.400;16.880;2024-03-22T03:24:41;101012.91;;;9.74;90.28
24336;BME280;75016;52.400;16.880;2024-03-22T03:27:06;101011.21;;;9.70;90.33
24336;BME280;75016;52.400;16.880;2024-03-22T03:29:32;101014.80;;;9.78;90.72
24336;BME280;75016;52.400;16.880;2024-03-22T03:31:57;101016.75;;;9.75;90.62
24336;BME280;75016;52.400;16.880;2024-03-22T03:34:23;101011.87;;;9.71;90.53
24336;BME280;75016;52.400;16.880;2024-03-22T03:36:48;101012.62;;;9.73;90.70
24336;BME280;75016;52.400;16.880;2024-03-22T03:39:14;101012.77;;;9.79;90.65
24336;BME280;75016;52.400;16.880;2024-03-22T03:41:39;101015.22;;;9.82;90.51
24336;BME280;75016;52.400;16.880;2024-03-22T03:44:05;101017.41;;;9.81;90.28
24336;BME280;75016;52.400;16.880;2024-03-22T03:46:30;101018.15;;;9.83;90.42
24336;BME280;75016;52.400;16.880;2024-03-22T03:48:55;101016.49;;;9.81;90.27
24336;BME280;75016;52.400;16.880;2024-03-22T03:51:21;101016.11;;;9.82;90.28
24336;BME280;75016;52.400;16.880;2024-03-22T03:53:46;101014.59;;;9.86;90.26
24336;BME280;75016;52.400;16.880;2024-03-22T03:56:12;101017.14;;;9.90;90.21
24336;BME280;75016;52.400;16.880;2024-03-22T03:58:37;101017.55;;;9.94;90.11
24336;BME280;75016;52.400;16.880;2024-03-22T04:01:06;101015.18;;;9.93;89.90
24336;BME280;75016;52.400;16.880;2024-03-22T04:03:32;101022.11;;;9.92;89.66
24336;BME280;75016;52.400;16.880;2024-03-22T04:05:58;101023.67;;;9.91;89.48
24336;BME280;75016;52.400;16.880;2024-03-22T04:08:25;101026.02;;;9.82;89.04
24336;BME280;75016;52.400;16.880;2024-03-22T04:10:52;101024.10;;;9.79;88.85
24336;BME280;75016;52.400;16.880;2024-03-22T04:13:18;101021.73;;;9.74;88.72
24336;BME280;75016;52.400;16.880;2024-03-22T04:15:43;101018.88;;;9.67;88.30
24336;BME280;75016;52.400;16.880;2024-03-22T04:18:09;101017.94;;;9.62;88.15
24336;BME280;75016;52.400;16.880;2024-03-22T04:20:34;101020.27;;;9.64;88.44
24336;BME280;75016;52.400;16.880;2024-03-22T04:22:59;101024.49;;;9.68;88.31
24336;BME280;75016;52.400;16.880;2024-03-22T04:25:25;101021.61;;;9.65;88.06
24336;BME280;75016;52.400;16.880;2024-03-22T04:27:50;101016.38;;;9.56;87.71
24336;BME280;75016;52.400;16.880;2024-03-22T04:30:16;101015.73;;;9.52;87.83
24336;BME280;75016;52.400;16.880;2024-03-22T04:32:41;101016.96;;;9.36;87.43
24336;BME280;75016;52.400;16.880;2024-03-22T04:35:07;101013.09;;;9.35;87.93
24336;BME280;75016;52.400;16.880;2024-03-22T04:37:32;101005.19;;;9.37;87.95
24336;BME280;75016;52.400;16.880;2024-03-22T04:39:58;101005.19;;;9.37;87.89
24336;BME280;75016;52.400;16.880;2024-03-22T04:42:23;101004.38;;;9.33;87.96
24336;BME280;75016;52.400;16.880;2024-03-22T04:44:48;101002.27;;;9.30;87.99
24336;BME280;75016;52.400;16.880;2024-03-22T04:47:14;100998.17;;;9.33;88.05
24336;BME280;75016;52.400;16.880;2024-03-22T04:49:39;100999.11;;;9.32;88.04
24336;BME280;75016;52.400;16.880;2024-03-22T04:52:05;101001.59;;;9.32;88.10
24336;BME280;75016;52.400;16.880;2024-03-22T04:54:30;100998.20;;;9.38;88.24
24336;BME280;75016;52.400;16.880;2024-03-22T04:56:56;100997.58;;;9.40;88.05
24336;BME280;75016;52.400;16.880;2024-03-22T04:59:21;100995.52;;;9.39;88.12
24336;BME280;75016;52.400;16.880;2024-03-22T05:01:46;100993.66;;;9.35;87.87
24336;BME280;75016;52.400;16.880;2024-03-22T05:04:12;100989.48;;;9.17;87.74
24336;BME280;75016;52.400;16.880;2024-03-22T05:06:37;100988.02;;;9.04;87.88
24336;BME280;75016;52.400;16.880;2024-03-22T05:09:03;100986.88;;;9.05;88.19
24336;BME280;75016;52.400;16.880;2024-03-22T05:11:29;100986.16;;;8.96;88.43
24336;BME280;75016;52.400;16.880;2024-03-22T05:13:54;100988.83;;;8.99;88.71
24336;BME280;75016;52.400;16.880;2024-03-22T05:16:20;100983.84;;;9.08;88.93
24336;BME280;75016;52.400;16.880;2024-03-22T05:18:45;100983.36;;;9.16;88.98
24336;BME280;75016;52.400;16.880;2024-03-22T05:21:10;100981.86;;;9.20;89.02
24336;BME280;75016;52.400;16.880;2024-03-22T05:23:36;100981.02;;;9.19;88.86
24336;BME280;75016;52.400;16.880;2024-03-22T05:26:01;100981.45;;;9.15;88.96
24336;BME280;75016;52.400;16.880;2024-03-22T05:28:27;100981.59;;;9.16;89.03
24336;BME280;75016;52.400;16.880;2024-03-22T05:30:52;100979.09;;;9.05;89.00
24336;BME280;75016;52.400;16.880;2024-03-22T05:33:18;100976.69;;;8.92;88.98
24336;BME280;75016;52.400;16.880;2024-03-22T05:35:43;100974.39;;;8.84;89.27
24336;BME280;75016;52.400;16.880;2024-03-22T05:38:08;100973.14;;;8.75;89.30
24336;BME280;75016;52.400;16.880;2024-03-22T05:40:36;100973.04;;;8.74;89.75
24336;BME280;75016;52.400;16.880;2024-03-22T05:43:04;100972.31;;;8.72;90.02
24336;BME280;75016;52.400;16.880;2024-03-22T05:45:30;100973.72;;;8.66;90.26
24336;BME280;75016;52.400;16.880;2024-03-22T05:47:55;100976.65;;;8.73;90.60
24336;BME280;75016;52.400;16.880;2024-03-22T05:50:21;100971.42;;;8.75;90.81
24336;BME280;75016;52.400;16.880;2024-03-22T05:52:46;100972.23;;;8.76;90.68
24336;BME280;75016;52.400;16.880;2024-03-22T05:55:12;100972.73;;;8.76;91.15
24336;BME280;75016;52.400;16.880;2024-03-22T05:57:37;100973.46;;;8.82;91.30
24336;BME280;75016;52.400;16.880;2024-03-22T06:00:03;100979.63;;;8.74;91.42
24336;BME280;75016;52.400;16.880;2024-03-22T06:02:30;100977.40;;;8.63;91.61
24336;BME280;75016;52.400;16.880;2024-03-22T06:04:55;100979.09;;;8.59;91.73
24336;BME280;75016;52.400;16.880;2024-03-22T06:07:21;100976.27;;;8.59;91.74
24336;BME280;75016;52.400;16.880;2024-03-22T06:09:47;100969.55;;;8.68;92.05
24336;BME280;75016;52.400;16.880;2024-03-22T06:12:13;100970.70;;;8.80;92.19
24336;BME280;75016;52.400;16.880;2024-03-22T06:14:39;100976.17;;;8.83;92.08
24336;BME280;75016;52.400;16.880;2024-03-22T06:17:05;100966.95;;;8.78;91.91
24336;BME280;75016;52.400;16.880;2024-03-22T06:19:31;100968.20;;;8.78;91.82
24336;BME280;75016;52.400;16.880;2024-03-22T06:21:56;100968.52;;;8.81;91.83
24336;BME280;75016;52.400;16.880;2024-03-22T06:24:21;100971.62;;;8.86;91.88
24336;BME280;75016;52.400;16.880;2024-03-22T06:26:47;100971.45;;;8.88;91.94
24336;BME280;75016;52.400;16.880;2024-03-22T06:29:14;100966.77;;;8.81;91.92
24336;BME280;75016;52.400;16.880;2024-03-22T06:31:42;100956.99;;;8.85;92.08
24336;BME280;75016;52.400;16.880;2024-03-22T06:34:07;100950.77;;;8.79;92.04
24336;BME280;75016;52.400;16.880;2024-03-22T06:36:32;100949.05;;;8.81;92.07
24336;BME280;75016;52.400;16.880;2024-03-22T06:38:58;100950.04;;;8.91;92.30
24336;BME280;75016;52.400;16.880;2024-03-22T06:41:24;100954.52;;;8.84;92.36
24336;BME280;75016;52.400;16.880;2024-03-22T06:43:51;100952.70;;;8.79;92.37
24336;BME280;75016;52.400;16.880;2024-03-22T06:46:16;100950.97;;;8.79;92.42
24336;BME280;75016;52.400;16.880;2024-03-22T06:48:42;100954.68;;;8.76;92.56
24336;BME280;75016;52.400;16.880;2024-03-22T06:51:08;100953.83;;;8.79;92.88
24336;BME280;75016;52.400;16.880;2024-03-22T06:53:33;100952.27;;;8.84;93.21
24336;BME280;75016;52.400;16.880;2024-03-22T06:55:59;100945.48;;;8.82;93.36
24336;BME280;75016;52.400;16.880;2024-03-22T06:58:24;100945.21;;;8.92;93.43
24336;BME280;75016;52.400;16.880;2024-03-22T07:00:50;100936.63;;;9.04;93.50
24336;BME280;75016;52.400;16.880;2024-03-22T07:03:16;100928.92;;;9.17;93.38
24336;BME280;75016;52.400;16.880;2024-03-22T07:05:43;100931.20;;;9.17;92.97
24336;BME280;75016;52.400;16.880;2024-03-22T07:08:08;100928.02;;;9.06;92.72
24336;BME280;75016;52.400;16.880;2024-03-22T07:10:38;100925.20;;;9.00;92.82
24336;BME280;75016;52.400;16.880;2024-03-22T07:13:04;100926.04;;;8.98;93.04
24336;BME280;75016;52.400;16.880;2024-03-22T07:15:30;100928.62;;;9.02;93.25
24336;BME280;75016;52.400;16.880;2024-03-22T07:17:57;100928.55;;;9.12;93.43
24336;BME280;75016;52.400;16.880;2024-03-22T07:20:23;100922.68;;;9.14;93.09
24336;BME280;75016;52.400;16.880;2024-03-22T07:22:48;100922.15;;;9.17;92.92
24336;BME280;75016;52.400;16.880;2024-03-22T07:25:14;100919.05;;;9.21;92.63
24336;BME280;75016;52.400;16.880;2024-03-22T07:27:39;100918.41;;;9.23;92.61
24336;BME280;75016;52.400;16.880;2024-03-22T07:30:05;100919.39;;;9.13;92.18
24336;BME280;75016;52.400;16.880;2024-03-22T07:32:31;100917.59;;;9.14;92.34
24336;BME280;75016;52.400;16.880;2024-03-22T07:34:57;100916.36;;;9.22;92.49
24336;BME280;75016;52.400;16.880;2024-03-22T07:37:22;100912.55;;;9.29;92.53
24336;BME280;75016;52.400;16.880;2024-03-22T07:39:48;100910.14;;;9.28;92.01
24336;BME280;75016;52.400;16.880;2024-03-22T07:42:14;100908.48;;;9.42;92.39
24336;BME280;75016;52.400;16.880;2024-03-22T07:44:39;100905.88;;;9.55;92.26
24336;BME280;75016;52.400;16.880;2024-03-22T07:47:05;100904.14;;;9.59;92.03
24336;BME280;75016;52.400;16.880;2024-03-22T07:49:30;100902.36;;;9.65;91.74
24336;BME280;75016;52.400;16.880;2024-03-22T07:51:58;100901.35;;;9.73;91.60
24336;BME280;75016;52.400;16.880;2024-03-22T07:54:23;100895.69;;;9.67;91.26
24336;BME280;75016;52.400;16.880;2024-03-22T07:56:49;100891.88;;;9.68;91.04
24336;BME280;75016;52.400;16.880;2024-03-22T07:59:14;100884.62;;;9.76;91.11
24336;BME280;75016;52.400;16.880;2024-03-22T08:01:40;100879.17;;;9.78;90.71
24336;BME280;75016;52.400;16.880;2024-03-22T08:04:05;100877.63;;;9.77;90.52
24336;BME280;75016;52.400;16.880;2024-03-22T08:06:31;100877.91;;;9.91;90.99
24336;BME280;75016;52.400;16.880;2024-03-22T08:08:56;100874.20;;;10.01;90.86
24336;BME280;75016;52.400;16.880;2024-03-22T08:11:22;100876.55;;;10.01;90.46
24336;BME280;75016;52.400;16.880;2024-03-22T08:13:47;100876.48;;;9.96;89.97
24336;BME280;75016;52.400;16.880;2024-03-22T08:16:13;100871.81;;;10.00;90.03
24336;BME280;75016;52.400;16.880;2024-03-22T08:18:38;100875.68;;;10.11;90.16
24336;BME280;75016;52.400;16.880;2024-03-22T08:21:04;100879.79;;;10.28;90.18
24336;BME280;75016;52.400;16.880;2024-03-22T08:23:29;100882.41;;;10.28;89.21
24336;BME280;75016;52.400;16.880;2024-03-22T08:25:55;100878.67;;;10.21;88.57
24336;BME280;75016;52.400;16.880;2024-03-22T08:28:22;100881.27;;;10.27;88.72
24336;BME280;75016;52.400;16.880;2024-03-22T08:30:48;100876.69;;;10.35;88.69
24336;BME280;75016;52.400;16.880;2024-03-22T08:33:13;100872.28;;;10.37;88.42
24336;BME280;75016;52.400;16.880;2024-03-22T08:35:39;100870.18;;;10.41;88.19
24336;BME280;75016;52.400;16.880;2024-03-22T08:38:05;100869.39;;;10.37;87.19
24336;BME280;75016;52.400;16.880;2024-03-22T08:40:37;100870.27;;;10.35;87.30
24336;BME280;75016;52.400;16.880;2024-03-22T08:43:03;100868.11;;;10.46;87.84
24336;BME280;75016;52.400;16.880;2024-03-22T08:45:28;100863.91;;;10.57;87.64
24336;BME280;75016;52.400;16.880;2024-03-22T08:47:53;100858.63;;;10.64;87.65
24336;BME280;75016;52.400;16.880;2024-03-22T08:50:19;100855.18;;;10.63;86.85
24336;BME280;75016;52.400;16.880;2024-03-22T08:52:45;100849.23;;;10.67;86.72
24336;BME280;75016;52.400;16.880;2024-03-22T08:55:11;100846.97;;;10.76;86.88
24336;BME280;75016;52.400;16.880;2024-03-22T08:57:37;100845.83;;;10.91;86.81
24336;BME280;75016;52.400;16.880;2024-03-22T09:00:02;100839.88;;;10.97;86.52
24336;BME280;75016;52.400;16.880;2024-03-22T09:02:28;100840.17;;;10.98;85.54
24336;BME280;75016;52.400;16.880;2024-03-22T09:04:53;100835.45;;;10.92;85.21
24336;BME280;75016;52.400;16.880;2024-03-22T09:07:19;100831.58;;;10.94;85.12
24336;BME280;75016;52.400;16.880;2024-03-22T09:09:45;100823.62;;;10.99;84.99
24336;BME280;75016;52.400;16.880;2024-03-22T09:12:10;100815.23;;;11.09;85.31
24336;BME280;75016;52.400;16.880;2024-03-22T09:14:35;100807.45;;;11.18;85.17
24336;BME280;75016;52.400;16.880;2024-03-22T09:17:01;100802.48;;;11.22;84.60
24336;BME280;75016;52.400;16.880;2024-03-22T09:19:26;100799.38;;;11.23;84.33
24336;BME280;75016;52.400;16.880;2024-03-22T09:21:52;100801.30;;;11.31;84.28
24336;BME280;75016;52.400;16.880;2024-03-22T09:24:18;100801.36;;;11.35;83.96
24336;BME280;75016;52.400;16.880;2024-03-22T09:26:43;100797.88;;;11.32;83.22
24336;BME280;75016;52.400;16.880;2024-03-22T09:29:08;100795.38;;;11.27;83.23
24336;BME280;75016;52.400;16.880;2024-03-22T09:31:34;100795.71;;;11.27;82.66
24336;BME280;75016;52.400;16.880;2024-03-22T09:33:59;100794.48;;;11.32;82.92
24336;BME280;75016;52.400;16.880;2024-03-22T09:36:24;100793.91;;;11.42;83.05
24336;BME280;75016;52.400;16.880;2024-03-22T09:38:50;100781.64;;;11.49;82.82
24336;BME280;75016;52.400;16.880;2024-03-22T09:41:24;100780.96;;;11.57;82.66
24336;BME280;75016;52.400;16.880;2024-03-22T09:43:51;100779.13;;;11.68;82.49
24336;BME280;75016;52.400;16.880;2024-03-22T09:46:18;100774.98;;;11.71;81.86
24336;BME280;75016;52.400;16.880;2024-03-22T09:48:47;100778.58;;;11.86;82.24
24336;BME280;75016;52.400;16.880;2024-03-22T09:51:14;100775.43;;;11.97;81.92
24336;BME280;75016;52.400;16.880;2024-03-22T09:53:44;100771.63;;;12.05;81.67
24336;BME280;75016;52.400;16.880;2024-03-22T09:56:10;100764.91;;;12.09;80.88
24336;BME280;75016;52.400;16.880;2024-03-22T09:58:37;100765.49;;;12.24;81.30
24336;BME280;75016;52.400;16.880;2024-03-22T10:01:03;100765.11;;;12.35;80.05
24336;BME280;75016;52.400;16.880;2024-03-22T10:03:29;100769.45;;;12.48;80.03
24336;BME280;75016;52.400;16.880;2024-03-22T10:05:54;100766.41;;;12.54;78.83
24336;BME280;75016;52.400;16.880;2024-03-22T10:08:20;100763.36;;;12.48;77.84
24336;BME280;75016;52.400;16.880;2024-03-22T10:10:46;100751.02;;;12.40;77.37
24336;BME280;75016;52.400;16.880;2024-03-22T10:13:11;100744.70;;;12.43;77.96
24336;BME280;75016;52.400;16.880;2024-03-22T10:15:37;100741.56;;;12.58;78.31
24336;BME280;75016;52.400;16.880;2024-03-22T10:18:03;100738.48;;;12.69;78.03
24336;BME280;75016;52.400;16.880;2024-03-22T10:20:29;100735.61;;;12.76;77.88
24336;BME280;75016;52.400;16.880;2024-03-22T10:22:56;100730.18;;;12.66;76.07
24336;BME280;75016;52.400;16.880;2024-03-22T10:25:23;100730.63;;;12.52;75.78
24336;BME280;75016;52.400;16.880;2024-03-22T10:27:48;100728.83;;;12.50;76.50
24336;BME280;75016;52.400;16.880;2024-03-22T10:30:15;100727.26;;;12.50;76.52
24336;BME280;75016;52.400;16.880;2024-03-22T10:32:46;100716.65;;;12.51;76.51
24336;BME280;75016;52.400;16.880;2024-03-22T10:35:13;100713.18;;;12.56;76.84
24336;BME280;75016;52.400;16.880;2024-03-22T10:37:40;100715.45;;;12.55;75.89
24336;BME280;75016;52.400;16.880;2024-03-22T10:40:06;100709.31;;;12.49;75.89
24336;BME280;75016;52.400;16.880;2024-03-22T10:42:36;100707.73;;;12.49;76.10
24336;BME280;75016;52.400;16.880;2024-03-22T10:45:03;100699.27;;;12.48;76.14
24336;BME280;75016;52.400;16.880;2024-03-22T10:47:31;100694.92;;;12.49;76.21
24336;BME280;75016;52.400;16.880;2024-03-22T10:52:33;100688.11;;;12.50;76.63
24336;BME280;75016;52.400;16.880;2024-03-22T10:55:00;100687.14;;;12.46;76.35
24336;BME280;75016;52.400;16.880;2024-03-22T10:57:27;100678.39;;;12.45;76.39
24336;BME280;75016;52.400;16.880;2024-03-22T10:59:54;100679.42;;;12.43;76.42
24336;BME280;75016;52.400;16.880;2024-03-22T11:02:23;100678.30;;;12.39;76.64
24336;BME280;75016;52.400;16.880;2024-03-22T11:04:58;100675.85;;;12.47;76.69
24336;BME280;75016;52.400;16.880;2024-03-22T11:07:28;100668.06;;;12.42;75.49
24336;BME280;75016;52.400;16.880;2024-03-22T11:09:57;100671.36;;;12.37;75.82
24336;BME280;75016;52.400;16.880;2024-03-22T11:12:27;100670.14;;;12.34;75.89
24336;BME280;75016;52.400;16.880;2024-03-22T11:14:53;100669.05;;;12.33;76.00
24336;BME280;75016;52.400;16.880;2024-03-22T11:17:19;100664.30;;;12.28;76.12
24336;BME280;75016;52.400;16.880;2024-03-22T11:19:46;100664.86;;;12.25;76.45
24336;BME280;75016;52.400;16.880;2024-03-22T11:22:12;100664.61;;;12.21;76.99
24336;BME280;75016;52.400;16.880;2024-03-22T11:24:38;100659.77;;;12.20;77.33
24336;BME280;75016;52.400;16.880;2024-03-22T11:27:03;100656.65;;;12.14;77.62
24336;BME280;75016;52.400;16.880;2024-03-22T11:29:29;100660.48;;;12.11;78.03
24336;BME280;75016;52.400;16.880;2024-03-22T11:31:54;100652.14;;;12.13;78.68
24336;BME280;75016;52.400;16.880;2024-03-22T11:34:20;100642.34;;;12.13;79.04
24336;BME280;75016;52.400;16.880;2024-03-22T11:36:46;100636.98;;;12.11;79.45
24336;BME280;75016;52.400;16.880;2024-03-22T11:39:11;100635.16;;;12.09;79.64
24336;BME280;75016;52.400;16.880;2024-03-22T11:41:37;100625.27;;;12.09;79.93
24336;BME280;75016;52.400;16.880;2024-03-22T11:44:02;100606.72;;;12.07;79.75
24336;BME280;75016;52.400;16.880;2024-03-22T11:46:28;100604.30;;;12.06;79.69
24336;BME280;75016;52.400;16.880;2024-03-22T11:48:54;100608.41;;;12.10;79.65
24336;BME280;75016;52.400;16.880;2024-03-22T11:51:20;100606.52;;;12.20;79.95
24336;BME280;75016;52.400;16.880;2024-03-22T11:53:50;100604.91;;;12.24;79.70
24336;BME280;75016;52.400;16.880;2024-03-22T11:56:18;100591.44;;;12.24;79.32
24336;BME280;75016;52.400;16.880;2024-03-22T11:58:46;100580.92;;;12.22;79.50
24336;BME280;75016;52.400;16.880;2024-03-22T12:01:13;100580.52;;;12.21;79.21
24336;BME280;75016;52.400;16.880;2024-03-22T12:03:39;100580.54;;;12.12;78.92
24336;BME280;75016;52.400;16.880;2024-03-22T12:06:05;100580.10;;;12.00;78.41
24336;BME280;75016;52.400;16.880;2024-03-22T12:08:31;100582.27;;;11.98;78.97
24336;BME280;75016;52.400;16.880;2024-03-22T12:10:56;100577.80;;;12.06;79.42
24336;BME280;75016;52.400;16.880;2024-03-22T12:13:22;100568.37;;;12.19;79.49
24336;BME280;75016;52.400;16.880;2024-03-22T12:15:48;100565.94;;;12.24;79.10
24336;BME280;75016;52.400;16.880;2024-03-22T12:18:13;100561.59;;;12.28;79.18
24336;BME280;75016;52.400;16.880;2024-03-22T12:20:38;100560.60;;;12.35;78.97
24336;BME280;75016;52.400;16.880;2024-03-22T12:23:04;100554.95;;;12.35;78.56
24336;BME280;75016;52.400;16.880;2024-03-22T12:25:29;100550.49;;;12.33;78.34
24336;BME280;75016;52.400;16.880;2024-03-22T12:27:55;100543.10;;;12.28;78.13
24336;BME280;75016;52.400;16.880;2024-03-22T12:30:21;100540.60;;;12.25;78.34
24336;BME280;75016;52.400;16.880;2024-03-22T12:32:47;100542.29;;;12.29;78.35
24336;BME280;75016;52.400;16.880;2024-03-22T12:35:12;100536.44;;;12.31;78.47
24336;BME280;75016;52.400;16.880;2024-03-22T12:37:38;100536.20;;;12.36;78.72